Time;durP1;ratioP1;P1;durP2;ratioP2;P2;SDS_P1;SDS_P2;PMS_P1;PMS_P2;Temp;Humidity;BMP_temperature;BMP_pressure;BME280_temperature;BME280_humidity;BME280_pressure;Samples;Min_cycle;Max_cycle;Signal;HPM_P1;HPM_P2
2022/08/21 00:01:32;;;;;;;15.38;8.50;;;14.20;99.90;;;;;;5098577;28;20081;-65
2022/08/21 00:03:58;;;;;;;13.57;9.02;;;14.30;99.90;;;;;;5115446;28;20119;-65
2022/08/21 00:06:24;;;;;;;10.73;8.73;;;14.30;99.90;;;;;;5115182;28;20126;-65
2022/08/21 00:08:51;;;;;;;9.90;7.50;;;14.30;99.90;;;;;;5116719;28;20454;-65
2022/08/21 00:11:18;;;;;;;13.32;8.45;;;14.30;99.90;;;;;;5112871;28;20059;-65
2022/08/21 00:13:43;;;;;;;14.48;7.78;;;14.30;99.90;;;;;;5115375;28;20464;-65
2022/08/21 00:16:10;;;;;;;15.25;7.85;;;14.20;99.90;;;;;;5115419;28;20078;-64
2022/08/21 00:18:37;;;;;;;11.45;7.47;;;14.10;99.90;;;;;;5116346;28;20455;-64
2022/08/21 00:21:03;;;;;;;11.35;7.38;;;14.10;99.90;;;;;;5116540;28;20443;-64
2022/08/21 00:23:29;;;;;;;9.27;7.85;;;14.10;99.90;;;;;;5116210;28;20047;-64
2022/08/21 00:25:56;;;;;;;14.48;8.13;;;14.10;99.90;;;;;;5116073;28;20055;-64
2022/08/21 00:28:21;;;;;;;10.82;7.22;;;14.10;99.90;;;;;;5097870;28;20096;-64
2022/08/21 00:30:47;;;;;;;14.20;8.73;;;14.10;99.90;;;;;;5116092;28;20119;-64
2022/08/21 00:33:13;;;;;;;15.88;8.43;;;14.10;99.90;;;;;;5115949;27;20043;-64
2022/08/21 00:35:42;;;;;;;12.90;7.63;;;14.10;99.90;;;;;;5115954;28;20046;-64
2022/08/21 00:38:09;;;;;;;11.30;7.55;;;14.10;99.90;;;;;;5114757;28;20050;-64
2022/08/21 00:40:43;;;;;;;9.85;7.22;;;14.10;99.90;;;;;;5112492;28;20048;-64
2022/08/21 00:43:11;;;;;;;14.18;8.05;;;14.10;99.90;;;;;;5115984;28;20396;-64
2022/08/21 00:45:38;;;;;;;15.02;8.52;;;14.10;99.90;;;;;;5115887;28;20044;-64
2022/08/21 00:48:04;;;;;;;16.73;8.05;;;14.00;99.90;;;;;;5097494;28;20129;-64
2022/08/21 00:50:34;;;;;;;11.77;7.97;;;14.00;99.90;;;;;;5115722;28;20502;-64
2022/08/21 00:53:01;;;;;;;13.52;7.85;;;13.90;99.90;;;;;;5114479;28;20613;-64
2022/08/21 00:55:29;;;;;;;14.48;8.63;;;13.90;99.90;;;;;;5114670;28;20054;-64
2022/08/21 00:57:59;;;;;;;12.13;7.93;;;13.90;99.90;;;;;;5115707;28;20028;-64
2022/08/21 01:00:29;;;;;;;11.15;7.63;;;13.90;99.90;;;;;;5114516;28;20058;-64
2022/08/21 01:02:57;;;;;;;11.63;7.45;;;13.90;99.90;;;;;;5113863;28;20040;-64
2022/08/21 01:05:23;;;;;;;16.95;7.60;;;13.90;99.90;;;;;;5097234;28;20040;-64
2022/08/21 01:07:49;;;;;;;14.20;7.93;;;13.90;99.90;;;;;;5114188;28;20053;-64
2022/08/21 01:10:16;;;;;;;14.32;7.72;;;13.90;99.90;;;;;;5092677;28;20043;-64
2022/08/21 01:12:42;;;;;;;10.27;7.80;;;13.90;99.90;;;;;;5096945;28;20040;-64
2022/08/21 01:15:09;;;;;;;10.50;8.15;;;13.90;99.90;;;;;;5096711;28;20472;-64
2022/08/21 01:17:35;;;;;;;13.60;7.60;;;13.90;99.90;;;;;;5096911;28;20036;-64
2022/08/21 01:20:06;;;;;;;12.98;7.93;;;13.90;99.90;;;;;;5096845;28;20048;-64
2022/08/21 01:22:32;;;;;;;11.00;7.25;;;13.90;99.90;;;;;;5096995;28;20035;-64
2022/08/21 01:24:58;;;;;;;12.13;7.55;;;13.90;99.90;;;;;;5096008;28;20036;-64
2022/08/21 01:27:24;;;;;;;14.65;7.88;;;13.80;99.90;;;;;;5096706;28;20047;-64
2022/08/21 01:30:09;;;;;;;13.50;7.57;;;13.80;99.90;;;;;;5096746;28;20047;-64
2022/08/21 01:32:35;;;;;;;11.48;7.32;;;13.80;99.90;;;;;;5096409;28;20484;-64
2022/08/21 01:35:02;;;;;;;18.58;7.82;;;13.80;99.90;;;;;;5114745;28;20043;-64
2022/08/21 01:37:29;;;;;;;13.13;7.53;;;13.80;99.90;;;;;;5114810;28;20079;-64
2022/08/21 01:39:55;;;;;;;12.18;6.70;;;13.90;99.90;;;;;;5079399;28;20039;-64
2022/08/21 01:42:21;;;;;;;10.73;6.80;;;13.90;99.90;;;;;;5094016;28;20096;-64
2022/08/21 01:44:47;;;;;;;14.75;6.85;;;13.90;99.90;;;;;;5096465;28;20384;-64
2022/08/21 01:47:15;;;;;;;11.15;7.05;;;13.90;99.90;;;;;;5114628;28;20581;-64
2022/08/21 01:49:42;;;;;;;15.55;7.15;;;13.90;99.90;;;;;;5096285;28;20182;-64
2022/08/21 01:52:08;;;;;;;14.20;6.55;;;13.90;99.90;;;;;;5096604;28;20044;-64
2022/08/21 01:54:34;;;;;;;19.50;7.35;;;13.90;99.90;;;;;;5079423;28;20046;-64
2022/08/21 01:57:01;;;;;;;9.15;6.63;;;13.90;99.90;;;;;;5079302;28;20055;-64
2022/08/21 01:59:27;;;;;;;12.52;6.18;;;13.80;99.90;;;;;;5096038;28;20502;-64
2022/08/21 02:01:54;;;;;;;13.70;7.00;;;13.80;99.90;;;;;;5096232;28;20380;-64
2022/08/21 02:04:20;;;;;;;12.02;7.20;;;13.80;99.90;;;;;;5096037;28;20043;-64
2022/08/21 02:06:46;;;;;;;12.35;7.15;;;13.80;99.90;;;;;;5095943;28;20491;-64
2022/08/21 02:09:13;;;;;;;11.88;7.20;;;13.90;99.90;;;;;;5096045;28;20040;-64
2022/08/21 02:11:41;;;;;;;13.55;7.78;;;13.90;99.90;;;;;;5093569;28;20139;-64
2022/08/21 02:14:09;;;;;;;15.90;8.00;;;13.90;99.90;;;;;;5095251;28;20054;-64
2022/08/21 02:16:35;;;;;;;14.23;7.53;;;14.00;99.90;;;;;;5095676;28;20035;-65
2022/08/21 02:19:01;;;;;;;14.45;7.60;;;14.00;99.90;;;;;;5114025;28;20040;-64
2022/08/21 02:21:27;;;;;;;14.68;6.78;;;14.00;99.90;;;;;;5095842;28;20118;-64
2022/08/21 02:23:53;;;;;;;14.55;7.80;;;14.00;99.90;;;;;;5078684;28;20078;-64
2022/08/21 02:26:19;;;;;;;10.60;7.05;;;14.00;99.90;;;;;;5078764;28;20075;-64
2022/08/21 02:28:45;;;;;;;13.88;7.22;;;14.00;99.90;;;;;;5114045;28;20032;-64
2022/08/21 02:31:11;;;;;;;10.73;7.05;;;14.00;99.90;;;;;;5095608;28;20546;-64
2022/08/21 02:33:36;;;;;;;12.25;7.25;;;14.00;99.90;;;;;;5095810;28;20046;-65
2022/08/21 02:36:04;;;;;;;14.32;7.68;;;14.00;99.90;;;;;;5113783;28;20484;-64
2022/08/21 02:38:38;;;;;;;12.40;7.50;;;14.00;99.90;;;;;;5078550;28;20075;-64
2022/08/21 02:41:07;;;;;;;16.25;7.45;;;14.10;99.90;;;;;;5093324;28;20049;-64
2022/08/21 02:43:33;;;;;;;11.80;6.60;;;14.10;99.90;;;;;;5095458;28;20044;-64
2022/08/21 02:45:59;;;;;;;18.50;8.27;;;14.10;99.90;;;;;;5095245;28;20161;-64
2022/08/21 02:48:30;;;;;;;10.02;6.63;;;14.10;99.90;;;;;;5095316;28;20047;-64
2022/08/21 02:51:04;;;;;;;11.77;7.97;;;14.10;99.90;;;;;;5095459;28;20035;-64
2022/08/21 02:53:30;;;;;;;13.52;7.43;;;14.10;99.90;;;;;;5113404;28;20035;-64
2022/08/21 02:55:58;;;;;;;12.02;6.60;;;14.10;99.90;;;;;;5095517;28;20031;-65
2022/08/21 02:58:28;;;;;;;13.77;7.25;;;14.10;99.90;;;;;;5095150;28;20043;-64
2022/08/21 03:00:54;;;;;;;15.03;7.57;;;14.10;99.90;;;;;;5113434;28;20048;-65
2022/08/21 03:03:20;;;;;;;14.02;8.38;;;14.00;99.90;;;;;;5078161;28;20048;-65
2022/08/21 03:05:47;;;;;;;12.82;7.38;;;14.00;99.90;;;;;;5113089;28;20043;-64
2022/08/21 03:08:15;;;;;;;16.35;8.23;;;14.10;99.90;;;;;;5095252;28;20035;-65
2022/08/21 03:10:47;;;;;;;12.02;7.90;;;14.00;99.90;;;;;;5092511;28;20056;-65
2022/08/21 03:13:14;;;;;;;13.57;7.25;;;14.10;99.90;;;;;;5095199;28;20032;-65
2022/08/21 03:15:40;;;;;;;13.65;7.95;;;14.10;99.90;;;;;;5113284;28;20043;-65
2022/08/21 03:18:08;;;;;;;15.65;8.40;;;14.10;99.90;;;;;;5094934;28;20036;-65
2022/08/21 03:20:35;;;;;;;19.00;9.65;;;14.20;99.90;;;;;;5094975;28;20047;-65
2022/08/21 03:23:03;;;;;;;12.82;8.25;;;14.20;99.90;;;;;;5113244;28;20082;-65
2022/08/21 03:25:31;;;;;;;14.55;8.75;;;14.20;99.90;;;;;;5095104;28;20054;-65
2022/08/21 03:27:59;;;;;;;16.02;8.85;;;14.20;99.90;;;;;;5099396;28;20075;-64
2022/08/21 03:30:25;;;;;;;15.68;9.13;;;14.20;99.90;;;;;;5098998;28;20491;-65
2022/08/21 03:32:50;;;;;;;14.65;9.43;;;14.20;99.90;;;;;;5098805;28;20039;-65
2022/08/21 03:35:18;;;;;;;19.70;9.18;;;14.20;99.90;;;;;;5098994;28;20085;-64
2022/08/21 03:37:44;;;;;;;15.82;9.43;;;14.20;99.90;;;;;;5098726;28;20085;-64
2022/08/21 03:40:12;;;;;;;15.38;8.63;;;14.20;99.90;;;;;;5081248;28;20371;-64
2022/08/21 03:42:40;;;;;;;18.30;8.63;;;14.20;99.90;;;;;;5097924;28;20047;-64
2022/08/21 03:45:08;;;;;;;13.98;8.25;;;14.20;99.90;;;;;;5098522;28;20044;-65
2022/08/21 03:47:34;;;;;;;14.30;7.90;;;14.10;99.90;;;;;;5098639;28;20541;-64
2022/08/21 03:50:05;;;;;;;13.60;8.15;;;14.10;99.90;;;;;;5098656;28;20173;-65
2022/08/21 03:52:31;;;;;;;10.93;7.50;;;14.10;99.90;;;;;;5098479;28;20046;-64
2022/08/21 03:54:57;;;;;;;13.25;8.07;;;14.10;99.90;;;;;;5116751;28;20035;-65
2022/08/21 03:57:25;;;;;;;17.08;8.65;;;14.00;99.90;;;;;;5081729;28;20388;-65
2022/08/21 03:59:51;;;;;;;16.08;9.43;;;14.10;99.90;;;;;;5098346;28;20048;-64
2022/08/21 04:02:19;;;;;;;14.85;8.98;;;14.10;99.90;;;;;;5098306;28;20059;-65
2022/08/21 04:04:45;;;;;;;17.33;8.05;;;14.10;99.90;;;;;;5116383;28;20508;-65
2022/08/21 04:07:11;;;;;;;16.85;8.93;;;14.10;99.90;;;;;;5116641;28;20078;-65
2022/08/21 04:09:37;;;;;;;15.15;9.10;;;14.10;99.90;;;;;;5116431;28;20388;-65
2022/08/21 04:12:03;;;;;;;12.82;8.98;;;14.10;99.90;;;;;;5095821;28;20048;-65
2022/08/21 04:14:30;;;;;;;14.63;8.52;;;14.20;99.90;;;;;;5097919;28;20044;-65
2022/08/21 04:16:55;;;;;;;18.27;9.23;;;14.20;99.90;;;;;;5081154;28;20047;-65
2022/08/21 04:19:21;;;;;;;16.27;8.35;;;14.20;99.90;;;;;;5097889;28;20047;-65
2022/08/21 04:21:47;;;;;;;14.55;8.50;;;14.20;99.90;;;;;;5116283;28;20042;-65
2022/08/21 04:24:13;;;;;;;13.32;8.25;;;14.20;99.90;;;;;;5098263;28;20078;-64
2022/08/21 04:26:39;;;;;;;17.27;8.50;;;14.20;99.90;;;;;;5080947;28;20040;-65
2022/08/21 04:29:08;;;;;;;13.20;8.20;;;14.20;99.90;;;;;;5098098;28;20075;-65
2022/08/21 04:31:38;;;;;;;17.85;9.35;;;14.20;99.90;;;;;;5116056;28;20040;-65
2022/08/21 04:34:05;;;;;;;12.98;8.38;;;14.20;99.90;;;;;;5097834;28;20035;-64
2022/08/21 04:36:32;;;;;;;15.95;8.50;;;14.20;99.90;;;;;;5116064;28;20046;-65
2022/08/21 04:38:58;;;;;;;14.32;8.65;;;14.20;99.90;;;;;;5115150;28;20516;-65
2022/08/21 04:41:25;;;;;;;14.48;9.20;;;14.30;99.90;;;;;;5095439;28;20043;-65
2022/08/21 04:43:50;;;;;;;12.80;8.27;;;14.20;99.90;;;;;;5097455;28;20048;-64
2022/08/21 04:46:16;;;;;;;16.55;8.75;;;14.30;99.90;;;;;;5097483;28;20047;-65
2022/08/21 04:48:42;;;;;;;18.27;9.23;;;14.30;99.90;;;;;;5097509;28;20107;-65
2022/08/21 04:51:19;;;;;;;17.90;9.02;;;14.30;99.90;;;;;;5080596;28;20123;-65
2022/08/21 04:53:50;;;;;;;17.55;9.95;;;14.30;99.90;;;;;;5115672;28;20035;-65
2022/08/21 04:56:26;;;;;;;15.00;8.50;;;14.30;99.90;;;;;;5115560;28;20510;-65
2022/08/21 04:58:56;;;;;;;15.55;8.27;;;14.30;99.90;;;;;;5097515;28;20035;-64
2022/08/21 05:01:25;;;;;;;13.05;7.97;;;14.30;99.90;;;;;;5097128;28;20075;-65
2022/08/21 05:03:56;;;;;;;14.50;7.70;;;14.30;99.90;;;;;;5097034;28;20101;-65
2022/08/21 05:06:22;;;;;;;14.82;7.82;;;14.30;99.90;;;;;;5097085;28;20092;-64
2022/08/21 05:08:50;;;;;;;15.23;8.73;;;14.30;99.90;;;;;;5080417;28;20376;-64
2022/08/21 05:11:16;;;;;;;15.57;8.10;;;14.30;99.90;;;;;;5094534;28;20052;-64
2022/08/21 05:13:42;;;;;;;12.88;8.63;;;14.30;99.90;;;;;;5096763;28;20495;-65
2022/08/21 05:16:08;;;;;;;12.70;7.38;;;14.40;99.90;;;;;;5115413;28;20082;-64
2022/08/21 05:18:34;;;;;;;16.05;9.25;;;14.40;99.90;;;;;;5114041;28;20135;-64
2022/08/21 05:21:00;;;;;;;14.40;8.15;;;14.50;99.90;;;;;;5114043;28;20453;-64
2022/08/21 05:23:27;;;;;;;13.60;7.97;;;14.50;99.90;;;;;;5114992;28;20130;-65
2022/08/21 05:25:53;;;;;;;14.25;8.38;;;14.50;99.90;;;;;;5113855;28;20086;-64
2022/08/21 05:28:19;;;;;;;13.13;7.65;;;14.60;99.90;;;;;;5115057;28;20090;-64
2022/08/21 05:30:47;;;;;;;12.88;7.32;;;14.60;99.90;;;;;;5113705;28;20375;-64
2022/08/21 05:33:13;;;;;;;12.57;7.63;;;14.70;99.90;;;;;;5114907;28;20044;-65
2022/08/21 05:35:40;;;;;;;16.77;8.15;;;14.80;99.90;;;;;;5113829;28;20046;-65
2022/08/21 05:38:06;;;;;;;16.30;7.60;;;14.80;99.90;;;;;;5113697;28;20144;-65
2022/08/21 05:40:33;;;;;;;11.10;7.30;;;14.90;99.90;;;;;;5112602;28;20128;-65
2022/08/21 05:42:59;;;;;;;12.18;7.15;;;15.00;99.90;;;;;;5096456;28;20472;-66
2022/08/21 05:45:30;;;;;;;11.60;7.45;;;15.00;99.90;;;;;;5113303;28;20058;-65
2022/08/21 05:47:56;;;;;;;12.07;7.05;;;15.10;99.90;;;;;;5113608;28;20035;-65
2022/08/21 05:50:22;;;;;;;13.52;7.10;;;15.10;99.90;;;;;;5113222;28;20514;-64
2022/08/21 05:52:48;;;;;;;14.73;7.18;;;15.20;99.90;;;;;;5113227;28;20119;-64
2022/08/21 05:55:14;;;;;;;14.02;7.35;;;15.30;99.90;;;;;;5114362;28;20043;-64
2022/08/21 05:57:41;;;;;;;14.73;7.28;;;15.30;99.90;;;;;;5114573;28;20046;-65
2022/08/21 06:00:12;;;;;;;15.93;7.03;;;15.40;99.90;;;;;;5113128;28;20105;-65
2022/08/21 06:02:41;;;;;;;11.95;7.03;;;15.50;99.90;;;;;;5112987;28;20079;-64
2022/08/21 06:05:07;;;;;;;14.27;6.65;;;15.60;99.90;;;;;;5114100;28;20040;-65
2022/08/21 06:07:34;;;;;;;10.45;6.28;;;15.70;99.90;;;;;;5113150;28;20070;-65
2022/08/21 06:10:00;;;;;;;12.25;6.30;;;15.70;99.90;;;;;;5113577;28;20051;-64
2022/08/21 06:12:26;;;;;;;10.45;6.57;;;15.80;99.90;;;;;;5093625;28;20071;-65
2022/08/21 06:14:52;;;;;;;11.98;6.40;;;15.90;99.90;;;;;;5113952;28;20074;-64
2022/08/21 06:17:18;;;;;;;13.65;6.68;;;16.10;99.90;;;;;;5095671;28;20040;-66
2022/08/21 06:19:44;;;;;;;9.57;5.90;;;16.30;99.90;;;;;;5095796;28;20096;-65
2022/08/21 06:22:12;;;;;;;12.73;5.95;;;16.60;99.90;;;;;;5078805;28;20376;-65
2022/08/21 06:24:37;;;;;;;11.93;5.57;;;16.90;99.90;;;;;;5095671;28;20051;-65
2022/08/21 06:27:07;;;;;;;10.27;4.65;;;17.20;99.90;;;;;;5113881;28;20031;-65
2022/08/21 06:29:35;;;;;;;9.98;5.07;;;17.40;99.90;;;;;;5113883;28;20404;-64
2022/08/21 06:32:02;;;;;;;11.65;5.80;;;17.60;99.90;;;;;;5095387;28;20598;-64
2022/08/21 06:34:28;;;;;;;9.88;4.55;;;17.70;99.90;;;;;;5078522;28;20077;-64
2022/08/21 06:36:54;;;;;;;10.77;4.90;;;17.90;99.90;;;;;;5113714;28;20537;-64
2022/08/21 06:39:20;;;;;;;11.52;4.97;;;18.10;99.90;;;;;;5095367;28;20031;-65
2022/08/21 06:41:45;;;;;;;10.18;4.72;;;18.20;99.90;;;;;;5111490;28;20032;-65
2022/08/21 06:44:11;;;;;;;12.10;4.68;;;18.40;99.90;;;;;;5078438;28;20411;-64
2022/08/21 06:46:37;;;;;;;9.48;5.25;;;18.40;99.90;;;;;;5095258;28;20047;-65
2022/08/21 06:49:03;;;;;;;11.35;4.55;;;18.60;99.90;;;;;;5095218;28;20067;-65
2022/08/21 06:51:29;;;;;;;9.35;3.90;;;18.70;99.90;;;;;;5113448;28;20101;-65
2022/08/21 06:53:55;;;;;;;9.68;4.00;;;18.80;99.90;;;;;;5113532;28;20036;-65
2022/08/21 06:56:21;;;;;;;12.15;4.25;;;19.00;99.90;;;;;;5078141;28;20105;-65
2022/08/21 06:58:47;;;;;;;10.05;4.07;;;19.20;99.90;;;;;;5095012;28;20039;-66
2022/08/21 07:01:13;;;;;;;10.40;3.72;;;19.40;99.90;;;;;;5094627;28;20126;-66
2022/08/21 07:03:41;;;;;;;11.32;4.63;;;19.50;99.90;;;;;;5092111;28;20094;-65
2022/08/21 07:06:09;;;;;;;8.02;3.53;;;19.70;99.90;;;;;;5077644;28;20083;-64
2022/08/21 07:08:36;;;;;;;9.95;4.22;;;19.80;99.90;;;;;;5095074;28;20372;-66
2022/08/21 07:11:06;;;;;;;10.40;3.80;;;19.80;99.90;;;;;;5092658;28;20565;-66
2022/08/21 07:13:32;;;;;;;7.70;3.40;;;19.60;99.90;;;;;;5095304;28;20051;-64
2022/08/21 07:15:57;;;;;;;9.45;4.25;;;19.40;99.90;;;;;;5094898;28;20552;-65
2022/08/21 07:18:23;;;;;;;8.73;3.78;;;19.30;99.90;;;;;;5113441;28;20043;-65
2022/08/21 07:20:50;;;;;;;6.45;3.38;;;19.30;99.90;;;;;;5095238;28;20449;-64
2022/08/21 07:23:29;;;;;;;10.82;4.00;;;19.40;99.90;;;;;;5095004;28;20123;-66
2022/08/21 07:25:55;;;;;;;7.82;3.20;;;19.50;99.90;;;;;;5094779;28;20040;-65
2022/08/21 07:28:21;;;;;;;9.07;3.40;;;19.70;99.90;;;;;;5094849;28;20043;-63
2022/08/21 07:30:51;;;;;;;10.35;3.70;;;19.80;99.90;;;;;;5094890;28;20039;-65
2022/08/21 07:33:17;;;;;;;8.40;3.10;;;19.90;99.90;;;;;;5095153;28;20038;-63
2022/08/21 07:35:43;;;;;;;8.35;3.33;;;19.90;99.90;;;;;;5095104;28;20122;-64
2022/08/21 07:38:09;;;;;;;8.45;3.22;;;20.00;99.90;;;;;;5078325;28;20097;-65
2022/08/21 07:40:35;;;;;;;8.55;3.20;;;20.10;99.90;;;;;;5110794;28;20737;-65
2022/08/21 07:43:01;;;;;;;10.43;3.10;;;20.30;99.90;;;;;;5112973;28;20044;-65
2022/08/21 07:45:27;;;;;;;6.90;2.90;;;20.50;99.90;;;;;;5112900;28;20395;-65
2022/08/21 07:47:53;;;;;;;9.15;2.80;;;20.60;99.90;;;;;;5113136;28;20517;-65
2022/08/21 07:50:20;;;;;;;12.40;3.10;;;20.70;99.90;;;;;;5095013;28;20039;-65
2022/08/21 07:52:47;;;;;;;6.90;2.95;;;20.80;99.90;;;;;;5113003;28;20035;-64
2022/08/21 07:55:16;;;;;;;8.75;3.22;;;20.90;99.90;;;;;;5112879;28;20120;-66
2022/08/21 07:57:42;;;;;;;7.72;3.88;;;21.10;99.90;;;;;;5094876;28;20454;-65
2022/08/21 08:00:12;;;;;;;8.82;3.88;;;21.30;99.90;;;;;;5094896;28;20502;-64
2022/08/21 08:02:38;;;;;;;8.60;3.17;;;21.40;99.90;;;;;;5094855;28;20127;-66
2022/08/21 08:05:07;;;;;;;14.70;3.95;;;21.60;99.90;;;;;;5094483;28;20071;-66
2022/08/21 08:07:34;;;;;;;9.68;3.40;;;21.80;99.90;;;;;;5094826;28;20039;-67
2022/08/21 08:10:00;;;;;;;7.82;3.33;;;22.00;99.90;;;;;;5091398;28;20047;-66
2022/08/21 08:12:29;;;;;;;12.13;3.97;;;22.20;99.90;;;;;;5057792;28;20055;-66
2022/08/21 08:15:00;;;;;;;12.10;4.03;;;22.60;99.90;;;;;;5082219;28;20491;-67
2022/08/21 08:17:26;;;;;;;10.63;3.80;;;22.80;99.90;;;;;;5116126;28;20035;-65
2022/08/21 08:19:52;;;;;;;10.80;4.20;;;23.00;99.90;;;;;;5116232;28;20032;-66
2022/08/21 08:22:23;;;;;;;11.18;4.30;;;23.00;99.90;;;;;;5081015;28;20047;-66
2022/08/21 08:24:50;;;;;;;11.85;3.35;;;23.20;99.90;;;;;;5097593;28;20071;-67
2022/08/21 08:27:17;;;;;;;12.25;3.53;;;23.40;99.90;;;;;;5075198;28;20114;-67
2022/08/21 08:29:44;;;;;;;11.77;3.97;;;23.80;99.90;;;;;;5095581;28;20087;-67
2022/08/21 08:32:10;;;;;;;12.38;3.83;;;24.00;99.90;;;;;;5061008;28;20085;-68
2022/08/21 08:34:37;;;;;;;11.68;3.92;;;24.20;99.90;;;;;;5077229;28;20559;-67
2022/08/21 08:37:04;;;;;;;10.75;3.03;;;24.30;99.90;;;;;;5060782;28;20067;-67
2022/08/21 08:39:31;;;;;;;11.57;3.63;;;24.40;99.90;;;;;;5060567;28;20032;-67
2022/08/21 08:42:07;;;;;;;14.38;3.42;;;24.70;99.90;;;;;;5075447;28;20499;-67
2022/08/21 08:44:34;;;;;;;10.75;3.28;;;24.90;99.90;;;;;;5077004;28;20047;-67
2022/08/21 08:47:01;;;;;;;14.93;3.90;;;24.90;99.90;;;;;;5077173;28;20063;-67
2022/08/21 08:49:34;;;;;;;6.72;2.65;;;24.90;99.90;;;;;;5095183;28;20149;-67
2022/08/21 08:52:09;;;;;;;10.85;3.80;;;24.90;99.90;;;;;;5076976;28;20560;-67
2022/08/21 08:54:55;;;;;;;11.05;3.50;;;25.10;99.90;;;;;;5060453;28;20036;-67
2022/08/21 08:57:23;;;;;;;12.38;3.38;;;25.20;99.90;;;;;;5095064;28;20508;-67
2022/08/21 08:59:52;;;;;;;11.05;3.72;;;25.40;99.90;;;;;;5076906;28;20127;-68
2022/08/21 09:02:19;;;;;;;8.00;3.28;;;25.40;99.90;;;;;;5094961;28;20417;-68
2022/08/21 09:04:47;;;;;;;11.10;4.18;;;25.20;99.90;;;;;;5090534;28;20146;-68
2022/08/21 09:07:24;;;;;;;9.93;3.15;;;25.00;99.90;;;;;;5115245;28;20683;-68
2022/08/21 09:10:13;;;;;;;8.60;3.25;;;25.00;99.90;;;;;;5115212;28;20046;-67
2022/08/21 09:13:06;;;;;;;10.25;3.30;;;25.00;99.90;;;;;;5078487;28;20134;-65
2022/08/21 09:15:43;;;;;;;9.63;3.10;;;25.10;99.90;;;;;;5063062;28;20055;-67
2022/08/21 09:18:27;;;;;;;12.13;3.00;;;25.50;99.90;;;;;;5097296;28;20456;-68
2022/08/21 09:21:01;;;;;;;11.13;2.80;;;26.00;99.90;;;;;;5097220;28;20399;-68
2022/08/21 09:23:54;;;;;;;13.88;3.05;;;26.30;99.90;;;;;;5097507;28;20043;-67
2022/08/21 09:26:25;;;;;;;7.63;2.83;;;26.50;99.90;;;;;;5115541;28;20036;-66
2022/08/21 09:28:57;;;;;;;12.68;3.38;;;26.60;99.90;;;;;;5098239;28;20487;-67
2022/08/21 09:31:32;;;;;;;7.47;2.13;;;26.40;99.90;;;;;;5116781;28;20043;-66
2022/08/21 09:37:51;;;;;;;8.70;2.00;;;25.80;99.90;;;;;;5114967;28;20085;-66
2022/08/21 09:40:35;;;;;;;7.60;2.50;;;26.20;99.90;;;;;;5114312;28;20032;-68
2022/08/21 09:43:16;;;;;;;9.50;3.03;;;26.50;99.90;;;;;;5096558;28;20039;-68
2022/08/21 09:45:45;;;;;;;7.85;2.83;;;26.70;99.90;;;;;;5114559;28;20047;-66
2022/08/21 09:48:19;;;;;;;6.70;2.33;;;27.10;99.90;;;;;;5114630;28;20058;-67
2022/08/21 09:50:47;;;;;;;8.30;2.15;;;27.10;99.90;;;;;;5115049;28;20396;-67
2022/08/21 09:53:22;;;;;;;8.73;2.35;;;27.10;99.90;;;;;;5079615;28;20519;-68
2022/08/21 09:58:48;;;;;;;9.35;2.95;;;27.00;99.90;;;;;;5096706;28;20109;-68
2022/08/21 10:01:23;;;;;;;9.85;2.45;;;26.40;99.90;;;;;;5096396;28;20043;-68
2022/08/21 10:04:07;;;;;;;6.22;2.00;;;26.30;99.90;;;;;;5079391;28;20035;-67
2022/08/21 10:06:34;;;;;;;6.05;2.40;;;26.60;99.90;;;;;;5096471;28;20050;-66
2022/08/21 10:09:12;;;;;;;8.02;2.40;;;26.80;99.90;;;;;;5096148;28;20039;-66
2022/08/21 10:11:39;;;;;;;8.00;2.08;;;27.00;99.90;;;;;;5095661;28;20052;-68
2022/08/21 10:14:27;;;;;;;5.53;2.05;;;27.30;99.90;;;;;;5115103;28;20507;-67
2022/08/21 10:17:12;;;;;;;6.90;2.22;;;27.70;99.90;;;;;;5114263;28;20034;-67
2022/08/21 10:19:38;;;;;;;10.90;2.88;;;27.90;99.80;;;;;;5078986;28;20043;-67
2022/08/21 10:22:10;;;;;;;8.75;2.53;;;28.00;98.80;;;;;;5095712;28;20039;-67
2022/08/21 10:25:13;;;;;;;9.70;2.45;;;28.20;99.10;;;;;;5113951;28;20051;-66
2022/08/21 10:27:49;;;;;;;5.82;2.10;;;28.60;99.30;;;;;;5113920;28;20432;-67
2022/08/21 10:30:30;;;;;;;5.07;2.10;;;28.20;96.80;;;;;;5113816;28;20054;-67
2022/08/21 10:33:19;;;;;;;7.38;2.03;;;27.80;96.50;;;;;;5078888;28;20035;-67
2022/08/21 10:35:59;;;;;;;5.72;2.10;;;27.60;96.60;;;;;;5079578;28;20395;-67
2022/08/21 10:38:59;;;;;;;7.93;2.00;;;27.80;96.40;;;;;;5113671;28;20036;-66
2022/08/21 10:41:27;;;;;;;8.60;2.45;;;28.20;96.90;;;;;;5106065;28;20076;-66
2022/08/21 10:44:12;;;;;;;5.93;1.90;;;28.50;94.90;;;;;;5095396;28;20043;-66
2022/08/21 10:47:05;;;;;;;5.60;1.65;;;28.30;93.70;;;;;;5095274;28;20043;-66
2022/08/21 10:49:45;;;;;;;4.75;1.70;;;28.50;94.90;;;;;;5095720;28;20044;-66
2022/08/21 10:52:32;;;;;;;6.13;2.22;;;28.80;94.90;;;;;;5113611;28;20040;-66
2022/08/21 10:55:13;;;;;;;10.88;2.60;;;28.90;92.90;;;;;;5095167;28;20047;-67
2022/08/21 10:57:44;;;;;;;6.30;1.90;;;28.90;93.10;;;;;;5078706;28;20043;-67
2022/08/21 11:00:24;;;;;;;7.03;1.90;;;28.60;92.70;;;;;;5095254;28;20539;-66
2022/08/21 11:03:37;;;;;;;7.63;1.95;;;28.40;93.70;;;;;;5095165;28;20126;-66
2022/08/21 11:06:14;;;;;;;10.70;2.42;;;28.50;93.30;;;;;;5035903;28;20353;-66
2022/08/21 11:08:43;;;;;;;5.65;2.25;;;28.50;92.60;;;;;;5095376;28;20070;-66
2022/08/21 11:11:24;;;;;;;8.38;2.13;;;28.50;92.70;;;;;;5075821;28;20101;-67
2022/08/21 11:13:55;;;;;;;7.75;2.45;;;28.60;93.70;;;;;;5113190;28;20074;-66
2022/08/21 11:16:37;;;;;;;;;;;28.80;93.90;;;;;;5095642;28;20040;-66
2022/08/21 11:19:09;;;;;;;10.52;2.95;;;28.90;94.80;;;;;;5113388;28;20011;-66
2022/08/21 11:21:35;;;;;;;7.18;2.20;;;28.90;92.70;;;;;;5095327;28;20046;-66
2022/08/21 11:24:10;;;;;;;7.57;2.60;;;28.90;91.60;;;;;;5095169;28;20043;-67
2022/08/21 11:26:46;;;;;;;8.40;2.53;;;28.90;92.90;;;;;;5094999;28;20399;-66
2022/08/21 11:29:28;;;;;;;8.00;2.38;;;28.80;93.60;;;;;;5113022;28;20040;-66
2022/08/21 11:32:03;;;;;;;9.27;3.53;;;28.80;92.10;;;;;;5076364;28;20048;-66
2022/08/21 11:34:46;;;;;;;7.80;2.17;;;28.70;91.80;;;;;;5077761;28;20122;-66
2022/08/21 11:37:15;;;;;;;7.05;2.30;;;28.60;91.30;;;;;;5082884;28;20043;-66
2022/08/21 11:39:51;;;;;;;7.35;2.70;;;28.40;92.00;;;;;;5074489;28;20131;-66
2022/08/21 11:42:28;;;;;;;8.35;2.88;;;28.30;94.00;;;;;;5090220;28;20040;-66
2022/08/21 11:45:35;;;;;;;6.68;2.17;;;28.30;93.30;;;;;;5106725;28;20039;-66
2022/08/21 11:48:28;;;;;;;7.28;2.63;;;28.20;92.40;;;;;;5115446;28;20533;-66
2022/08/21 11:50:56;;;;;;;6.65;2.00;;;28.00;91.80;;;;;;5079178;28;20048;-66
2022/08/21 11:53:52;;;;;;;8.98;2.63;;;27.80;92.90;;;;;;5116580;28;20096;-66
2022/08/21 11:56:26;;;;;;;8.77;2.63;;;27.80;93.50;;;;;;5098494;28;20061;-66
2022/08/21 11:58:59;;;;;;;6.93;2.20;;;27.70;92.50;;;;;;5074586;28;20047;-65
2022/08/21 12:01:32;;;;;;;8.38;2.45;;;27.50;93.20;;;;;;5057555;28;20045;-66
2022/08/21 12:04:06;;;;;;;8.93;2.72;;;27.50;93.20;;;;;;5057829;28;20607;-66
2022/08/21 12:06:38;;;;;;;8.65;2.40;;;27.60;93.40;;;;;;5041233;28;20128;-66
2022/08/21 12:09:26;;;;;;;7.07;2.72;;;27.60;92.40;;;;;;5075516;28;20392;-65
2022/08/21 12:12:22;;;;;;;6.90;2.05;;;27.30;91.70;;;;;;5071564;28;20099;-66
2022/08/21 12:14:51;;;;;;;6.18;1.95;;;27.10;91.40;;;;;;5095939;28;20572;-66
2022/08/21 12:17:20;;;;;;;6.38;1.90;;;26.90;92.10;;;;;;5095777;28;20036;-66
2022/08/21 12:20:01;;;;;;;8.70;2.47;;;26.80;92.10;;;;;;5095977;28;20047;-65
2022/08/21 12:22:40;;;;;;;9.15;2.67;;;26.60;91.50;;;;;;5094787;28;20054;-66
2022/08/21 12:25:15;;;;;;;9.77;1.92;;;26.40;92.30;;;;;;5099148;28;20043;-66
2022/08/21 12:28:01;;;;;;;8.27;2.60;;;26.20;92.70;;;;;;5097931;28;20079;-65
2022/08/21 12:30:32;;;;;;;8.88;2.78;;;26.00;93.30;;;;;;5097767;28;20055;-65
2022/08/21 12:33:18;;;;;;;6.85;2.00;;;25.80;93.00;;;;;;5115781;28;20035;-65
2022/08/21 12:35:45;;;;;;;10.10;2.30;;;25.70;93.70;;;;;;5116114;28;20032;-66
2022/08/21 12:38:44;;;;;;;7.88;2.33;;;25.60;94.10;;;;;;5097639;28;20040;-66
2022/08/21 12:41:20;;;;;;;6.80;2.00;;;25.80;94.80;;;;;;5096836;28;20055;-65
2022/08/21 12:43:56;;;;;;;6.53;1.60;;;26.10;94.40;;;;;;5097459;28;20130;-65
2022/08/21 12:46:40;;;;;;;6.40;2.20;;;26.20;93.50;;;;;;5115784;28;20127;-65
2022/08/21 12:49:16;;;;;;;5.60;2.47;;;26.00;93.70;;;;;;5114326;28;20123;-65
2022/08/21 12:52:08;;;;;;;5.95;1.80;;;25.70;94.60;;;;;;5114438;28;20040;-65
2022/08/21 12:54:43;;;;;;;5.72;1.77;;;25.70;94.50;;;;;;5115106;28;20039;-65
2022/08/21 12:57:24;;;;;;;3.55;1.70;;;25.50;94.20;;;;;;5115448;28;20472;-65
2022/08/21 13:00:07;;;;;;;6.68;2.35;;;25.30;94.60;;;;;;5114842;28;20031;-66
2022/08/21 13:02:39;;;;;;;6.13;2.05;;;25.20;94.50;;;;;;5097056;28;20158;-65
2022/08/21 13:05:12;;;;;;;8.70;2.50;;;25.10;94.50;;;;;;5096950;28;20040;-65